Time;durP1;ratioP1;P1;durP2;ratioP2;P2;SDS_P1;SDS_P2;PMS_P1;PMS_P2;Temp;Humidity;BMP_temperature;BMP_pressure;BME280_temperature;BME280_humidity;BME280_pressure;Samples;Min_cycle;Max_cycle;Signal;HPM_P1;HPM_P2
2022/12/15 00:38:55;;;;;;;6.00;4.53;;;;;;;12.24;61.83;100461.56;4989147;28;20056;-64
2022/12/15 00:41:20;;;;;;;5.50;4.03;;;;;;;12.23;61.81;100465.31;4989523;28;20037;-64
2022/12/15 00:43:46;;;;;;;6.57;4.50;;;;;;;12.24;61.95;100458.84;4988572;28;20046;-64
2022/12/15 00:48:56;;;;;;;6.40;4.53;;;;;;;12.27;61.69;100458.38;4989913;28;20107;-64
2022/12/15 01:21:27;;;;;;;5.60;4.57;;;;;;;12.20;61.73;100468.50;4988030;28;20131;-64
2022/12/15 01:23:52;;;;;;;7.60;4.70;;;;;;;12.22;61.96;100469.09;4987607;28;20121;-64
2022/12/15 01:26:18;;;;;;;5.47;4.67;;;;;;;12.21;61.94;100469.34;4987505;28;20033;-64
2022/12/15 01:28:43;;;;;;;6.27;4.57;;;;;;;12.23;62.12;100484.34;4987670;28;20441;-64
2022/12/15 01:31:10;;;;;;;6.30;4.50;;;;;;;12.21;62.06;100483.75;4988737;28;21092;-64
2022/12/15 01:33:37;;;;;;;5.10;4.60;;;;;;;12.20;61.97;100494.81;4986721;28;20030;-64
2022/12/15 01:36:02;;;;;;;5.93;4.67;;;;;;;12.22;61.85;100498.97;4988762;28;20464;-64
2022/12/15 01:38:28;;;;;;;6.17;4.43;;;;;;;12.20;61.68;100500.25;4987898;28;20034;-64
2022/12/15 01:40:57;;;;;;;6.93;4.70;;;;;;;12.20;61.86;100498.38;4987159;28;20058;-64
2022/12/15 01:43:26;;;;;;;5.30;4.50;;;;;;;12.21;61.85;100501.94;4987982;28;20553;-64
2022/12/15 01:45:58;;;;;;;5.77;4.53;;;;;;;12.21;61.93;100501.94;4986285;28;20030;-64
2022/12/15 01:48:47;;;;;;;6.53;4.70;;;;;;;12.19;61.84;100502.16;4986787;28;20034;-64
2022/12/15 01:51:23;;;;;;;6.23;4.87;;;;;;;12.18;62.12;100496.97;4979981;28;20042;-64
2022/12/15 01:54:00;;;;;;;5.53;4.47;;;;;;;12.19;61.86;100504.06;4987939;28;20042;-64
2022/12/15 01:56:28;;;;;;;5.83;4.50;;;;;;;12.18;61.97;100505.13;4987408;28;20037;-64
2022/12/15 01:58:59;;;;;;;5.07;4.33;;;;;;;12.19;62.11;100504.06;4987003;28;20034;-64
2022/12/15 02:01:24;;;;;;;7.07;4.97;;;;;;;12.14;61.94;100500.16;4987727;28;20084;-64
2022/12/15 02:03:50;;;;;;;5.97;4.40;;;;;;;12.17;62.04;100504.25;4987886;28;20030;-64
2022/12/15 02:06:18;;;;;;;6.67;4.70;;;;;;;12.16;62.08;100499.91;4987045;28;20031;-64
2022/12/15 02:08:46;;;;;;;7.20;4.73;;;;;;;12.17;62.19;100506.97;4986815;28;20637;-64
2022/12/15 02:11:17;;;;;;;5.57;4.67;;;;;;;12.14;61.96;100508.28;4987409;28;20061;-64
2022/12/15 02:13:59;;;;;;;6.10;4.70;;;;;;;12.15;62.29;100511.81;4986679;28;20030;-64
2022/12/15 02:16:41;;;;;;;6.00;4.47;;;;;;;12.16;61.96;100521.63;4986432;28;20065;-64
2022/12/15 02:19:12;;;;;;;7.10;5.00;;;;;;;12.18;61.91;100530.38;4986642;28;20030;-64
2022/12/15 02:21:43;;;;;;;5.57;4.73;;;;;;;12.15;62.01;100536.28;4987250;28;20656;-64
2022/12/15 02:24:18;;;;;;;5.43;4.70;;;;;;;12.16;62.13;100525.16;4986386;28;20137;-64
2022/12/15 02:27:06;;;;;;;5.93;4.80;;;;;;;12.13;62.07;100524.78;4986317;28;20040;-64
2022/12/15 02:30:07;;;;;;;6.87;4.73;;;;;;;12.15;62.47;100531.66;4987258;28;20046;-64
2022/12/15 02:33:02;;;;;;;5.67;4.37;;;;;;;12.15;62.14;100539.00;4971894;28;20057;-64
2022/12/15 02:35:53;;;;;;;7.33;4.73;;;;;;;12.18;62.72;100529.56;4987272;28;20725;-64
2022/12/15 02:38:31;;;;;;;5.33;4.40;;;;;;;12.14;62.46;100535.47;4980244;28;20543;-64
2022/12/15 02:41:02;;;;;;;5.50;4.70;;;;;;;12.14;62.12;100535.47;4986821;28;20486;-64
2022/12/15 02:43:31;;;;;;;5.23;4.50;;;;;;;12.14;62.22;100534.59;4986505;28;20683;-64
2022/12/15 02:46:27;;;;;;;7.53;4.67;;;;;;;12.12;62.29;100534.03;4987181;28;20034;-64
2022/12/15 02:49:14;;;;;;;5.87;4.87;;;;;;;12.12;62.16;100525.88;4986496;28;20136;-64
2022/12/15 02:52:02;;;;;;;5.43;4.50;;;;;;;12.13;62.37;100532.94;4985649;28;20038;-64
2022/12/15 02:54:41;;;;;;;8.10;4.40;;;;;;;12.12;62.17;100528.59;4986795;28;20131;-64
2022/12/15 02:57:23;;;;;;;6.70;4.80;;;;;;;12.11;62.27;100537.78;4987694;28;20030;-64
2022/12/15 02:59:59;;;;;;;5.77;4.57;;;;;;;12.09;62.14;100545.31;4990232;28;20032;-64
2022/12/15 03:02:29;;;;;;;6.70;4.73;;;;;;;12.09;62.14;100553.47;4990265;28;20398;-64
2022/12/15 03:04:56;;;;;;;6.13;4.70;;;;;;;12.07;62.14;100551.00;4990773;28;20055;-64
2022/12/15 03:07:22;;;;;;;7.30;4.80;;;;;;;12.07;61.94;100542.84;4990642;28;20034;-64
2022/12/15 03:09:48;;;;;;;7.40;4.80;;;;;;;12.08;62.20;100540.97;4972005;28;20038;-64
2022/12/15 03:12:13;;;;;;;5.20;4.47;;;;;;;12.07;62.13;100533.88;4990620;28;20386;-64
2022/12/15 03:14:38;;;;;;;5.77;4.40;;;;;;;12.06;61.94;100537.63;4990354;28;20434;-64
2022/12/15 03:17:06;;;;;;;6.90;4.90;;;;;;;12.05;61.99;100541.41;4990683;28;20617;-64
2022/12/15 03:19:32;;;;;;;6.77;4.83;;;;;;;12.03;62.17;100533.50;4990220;28;20069;-64
2022/12/15 03:21:57;;;;;;;6.10;4.60;;;;;;;12.05;61.88;100535.97;4988372;28;20073;-64
2022/12/15 03:24:22;;;;;;;6.30;4.63;;;;;;;12.05;61.86;100542.25;4989724;28;20045;-64
2022/12/15 03:26:48;;;;;;;5.80;4.67;;;;;;;12.04;61.99;100548.75;4989831;28;20034;-64
2022/12/15 03:29:16;;;;;;;6.60;4.80;;;;;;;12.05;61.83;100546.84;4990289;28;20078;-64
2022/12/15 03:31:41;;;;;;;6.53;4.73;;;;;;;12.04;61.89;100558.78;4989799;28;20129;-64
2022/12/15 03:34:06;;;;;;;6.03;4.70;;;;;;;12.03;61.91;100560.66;4989481;28;20035;-64
2022/12/15 03:36:32;;;;;;;5.93;4.80;;;;;;;12.05;61.91;100557.69;4990399;28;20489;-64
2022/12/15 03:38:58;;;;;;;6.40;4.60;;;;;;;11.99;61.90;100559.44;4989748;28;20538;-64
2022/12/15 03:41:23;;;;;;;6.83;5.03;;;;;;;12.01;61.96;100556.50;4988195;28;20030;-64
2022/12/15 03:43:48;;;;;;;6.60;4.90;;;;;;;12.01;62.02;100554.63;4989835;28;20113;-64
2022/12/15 03:46:14;;;;;;;7.03;5.17;;;;;;;12.01;62.09;100557.34;4989403;28;20030;-64
2022/12/15 03:48:39;;;;;;;6.10;5.00;;;;;;;11.99;62.00;100554.03;4988844;28;20124;-64
2022/12/15 03:51:04;;;;;;;6.57;4.93;;;;;;;12.02;62.11;100560.88;4988364;28;20121;-64
2022/12/15 03:53:30;;;;;;;7.53;5.20;;;;;;;12.01;62.05;100561.94;4988328;28;20072;-64
2022/12/15 03:55:55;;;;;;;6.30;5.07;;;;;;;11.98;61.90;100569.50;4989338;28;20046;-64
2022/12/15 03:58:20;;;;;;;6.17;4.80;;;;;;;12.01;62.04;100572.78;4989220;28;20149;-64
2022/12/15 04:00:46;;;;;;;6.23;4.77;;;;;;;12.00;61.90;100566.53;4989102;28;20034;-64
2022/12/15 04:03:11;;;;;;;7.00;4.73;;;;;;;11.99;61.94;100576.59;4988875;28;20063;-64
2022/12/15 04:05:37;;;;;;;5.10;4.60;;;;;;;11.98;61.99;100569.50;4989572;28;21712;-64
2022/12/15 04:08:03;;;;;;;6.60;5.27;;;;;;;11.96;61.96;100566.16;4989029;28;20763;-64
2022/12/15 04:10:32;;;;;;;6.37;4.90;;;;;;;11.98;61.91;100564.06;4988378;28;20494;-64
2022/12/15 04:12:58;;;;;;;6.83;5.00;;;;;;;11.97;61.87;100562.41;4989443;28;20026;-64
2022/12/15 04:15:24;;;;;;;6.03;4.87;;;;;;;11.97;62.06;100567.00;4989342;28;20037;-64
2022/12/15 04:17:50;;;;;;;7.07;4.90;;;;;;;11.95;61.97;100569.97;4988657;28;20034;-64
2022/12/15 04:20:15;;;;;;;5.63;4.47;;;;;;;11.95;62.08;100566.41;4988005;28;20052;-64
2022/12/15 04:22:43;;;;;;;6.97;4.63;;;;;;;11.95;62.15;100559.09;4989519;28;20096;-64
2022/12/15 05:33:56;;;;;;;6.57;5.18;;;;;;;11.82;62.39;100594.50;4987917;28;20438;-64
2022/12/15 05:36:21;;;;;;;6.70;5.20;;;;;;;11.81;62.29;100598.28;4987684;28;20160;-64
2022/12/15 05:38:51;;;;;;;6.77;5.20;;;;;;;11.83;62.42;100612.44;4987537;28;20613;-64
2022/12/15 05:41:18;;;;;;;7.47;4.90;;;;;;;11.82;62.21;100603.47;4987643;28;20450;-64
2022/12/15 05:43:44;;;;;;;5.27;4.60;;;;;;;11.79;62.26;100605.81;4987136;28;20522;-64
2022/12/15 05:46:09;;;;;;;6.33;4.73;;;;;;;11.79;62.30;100598.50;4987698;28;20113;-64
2022/12/15 05:48:35;;;;;;;7.20;5.20;;;;;;;11.80;62.13;100604.75;4987729;28;20037;-64
2022/12/15 05:51:05;;;;;;;5.80;4.57;;;;;;;11.78;62.39;100607.69;4987329;28;20038;-64
2022/12/15 05:53:30;;;;;;;7.83;5.17;;;;;;;11.80;62.36;100615.59;4987232;28;20117;-64
2022/12/15 05:56:03;;;;;;;7.87;5.00;;;;;;;11.80;62.46;100613.75;4988324;28;20084;-64
2022/12/15 05:58:29;;;;;;;6.33;4.80;;;;;;;11.81;62.46;100604.53;4986816;28;20117;-64
2022/12/15 06:01:02;;;;;;;7.83;5.50;;;;;;;11.81;62.47;100617.28;4987602;28;20034;-64
2022/12/15 06:03:27;;;;;;;7.60;4.83;;;;;;;11.78;62.32;100606.88;4987490;28;20545;-64
2022/12/15 06:05:53;;;;;;;7.23;5.27;;;;;;;11.81;62.43;100622.69;4986957;28;20041;-64
2022/12/15 06:08:18;;;;;;;7.20;5.17;;;;;;;11.83;63.13;100620.56;4987056;28;20038;-64
2022/12/15 06:10:43;;;;;;;10.53;5.27;;;;;;;11.89;63.33;100625.13;4986882;28;20026;-64
2022/12/15 06:13:09;;;;;;;9.10;4.67;;;;;;;11.86;63.78;100627.44;4987687;28;20034;-64
2022/12/15 06:15:34;;;;;;;9.97;5.40;;;;;;;11.88;64.03;100628.06;4972464;28;20524;-64
2022/12/15 06:17:59;;;;;;;8.63;5.07;;;;;;;11.88;64.22;100630.78;4988003;28;20110;-64
2022/12/15 06:20:24;;;;;;;8.07;4.63;;;;;;;11.85;64.07;100628.53;4988740;28;20048;-64
2022/12/15 06:22:50;;;;;;;7.27;4.87;;;;;;;11.85;64.17;100632.06;4988345;28;20029;-64
2022/12/15 06:25:16;;;;;;;7.73;5.03;;;;;;;11.84;64.22;100633.09;4988000;28;20125;-64
2022/12/15 06:27:41;;;;;;;13.30;5.30;;;;;;;11.87;64.28;100640.81;4988531;28;20072;-64
2022/12/15 06:30:07;;;;;;;9.53;5.07;;;;;;;11.86;64.11;100631.00;4987395;28;20141;-64
2022/12/15 06:32:34;;;;;;;9.33;4.60;;;;;;;11.83;63.90;100626.00;4983907;28;20029;-64
2022/12/15 06:35:00;;;;;;;8.00;4.80;;;;;;;11.86;63.96;100631.00;4984965;28;20168;-64
2022/12/15 06:37:26;;;;;;;8.20;5.00;;;;;;;11.86;64.04;100627.44;4985147;28;21087;-64
2022/12/15 06:39:51;;;;;;;8.47;5.17;;;;;;;11.85;64.20;100618.47;4984745;28;20034;-64
2022/12/15 06:42:16;;;;;;;7.60;5.33;;;;;;;11.82;63.88;100629.81;4985716;28;20550;-64
2022/12/15 06:44:42;;;;;;;7.90;4.80;;;;;;;11.82;64.04;100635.22;4985113;28;20037;-64
2022/12/15 06:47:07;;;;;;;6.23;4.90;;;;;;;11.85;64.02;100637.47;4985032;28;20033;-64
2022/12/15 06:49:32;;;;;;;7.07;4.97;;;;;;;11.86;63.85;100633.72;4984893;28;21294;-64
2022/12/15 06:51:58;;;;;;;8.00;5.10;;;;;;;11.91;64.13;100642.03;4984726;28;21788;-64
2022/12/15 06:54:23;;;;;;;7.23;4.83;;;;;;;11.88;63.73;100637.03;4984274;28;20065;-64
2022/12/15 06:56:49;;;;;;;7.10;5.13;;;;;;;11.86;63.53;100632.88;4984781;28;20080;-64
2022/12/15 06:59:14;;;;;;;9.30;5.00;;;;;;;11.91;63.51;100633.03;4966354;28;20066;-64
2022/12/15 07:01:40;;;;;;;9.00;5.00;;;;;;;11.92;63.22;100635.50;4985124;28;20160;-64
2022/12/15 07:04:05;;;;;;;8.17;5.10;;;;;;;11.86;63.04;100636.44;4986039;28;20100;-64
2022/12/15 07:06:35;;;;;;;6.63;4.97;;;;;;;11.88;63.12;100637.03;4968618;28;20244;-64
2022/12/15 07:09:00;;;;;;;6.67;4.80;;;;;;;11.87;62.95;100648.97;4986220;28;20036;-64
2022/12/15 07:11:25;;;;;;;7.03;5.10;;;;;;;11.90;62.91;100653.09;4986599;28;20026;-64
2022/12/15 07:13:51;;;;;;;7.00;5.10;;;;;;;11.88;62.83;100657.94;4986345;28;20048;-64
2022/12/15 07:16:18;;;;;;;8.87;5.90;;;;;;;11.91;62.64;100643.91;4986966;28;20057;-64
2022/12/15 07:18:43;;;;;;;7.13;5.40;;;;;;;11.88;62.52;100649.78;4986617;28;20042;-64
2022/12/15 07:21:09;;;;;;;7.07;5.10;;;;;;;11.90;62.46;100655.78;4986958;28;20617;-64
2022/12/15 07:23:35;;;;;;;7.60;5.20;;;;;;;11.92;62.40;100657.25;4985842;28;20066;-64
2022/12/15 07:26:06;;;;;;;10.27;5.63;;;;;;;11.88;62.46;100666.88;4986555;28;21453;-64
2022/12/15 07:28:32;;;;;;;7.47;5.13;;;;;;;11.89;62.04;100660.41;4986493;28;20145;-64
2022/12/15 07:31:06;;;;;;;7.97;5.43;;;;;;;11.88;62.23;100668.78;4986848;28;20049;-64
2022/12/15 07:33:32;;;;;;;7.75;5.32;;;;;;;11.89;61.86;100668.56;4986191;28;20026;-64
2022/12/15 07:35:59;;;;;;;8.13;6.10;;;;;;;11.91;62.04;100671.88;4986543;28;20074;-64
2022/12/15 07:38:25;;;;;;;6.10;4.90;;;;;;;11.91;61.67;100661.03;4986897;28;20033;-64
2022/12/15 07:40:51;;;;;;;7.37;5.47;;;;;;;11.91;61.91;100654.75;4986219;28;20033;-64
2022/12/15 07:43:16;;;;;;;8.37;5.63;;;;;;;11.94;61.62;100654.28;4986207;28;20481;-64
2022/12/15 07:45:42;;;;;;;8.90;5.53;;;;;;;11.92;61.43;100657.25;4989782;28;20460;-64
2022/12/15 07:48:07;;;;;;;8.37;5.13;;;;;;;11.92;61.59;100662.66;4989611;28;20042;-64
2022/12/15 07:50:32;;;;;;;7.77;5.53;;;;;;;11.93;61.40;100667.06;4989630;28;20038;-64
2022/12/15 07:52:57;;;;;;;6.47;5.10;;;;;;;11.93;61.45;100666.22;4989661;28;20044;-64
2022/12/15 07:55:24;;;;;;;9.07;5.53;;;;;;;11.97;61.49;100665.56;4989044;28;20505;-64
2022/12/15 07:57:49;;;;;;;8.53;5.63;;;;;;;11.99;61.22;100679.78;4990028;28;21761;-64
2022/12/15 08:00:16;;;;;;;6.93;5.40;;;;;;;12.01;61.27;100676.81;4989632;28;20121;-64
2022/12/15 08:02:41;;;;;;;6.57;5.37;;;;;;;12.01;61.17;100686.84;4989535;28;20400;-64
2022/12/15 08:05:08;;;;;;;7.70;5.87;;;;;;;11.96;61.16;100682.91;4989097;28;20541;-64
2022/12/15 08:07:34;;;;;;;8.03;5.73;;;;;;;12.01;61.03;100682.25;4989653;28;20616;-64
2022/12/15 08:09:59;;;;;;;8.27;5.70;;;;;;;12.07;60.97;100680.53;4989140;28;20149;-64
2022/12/15 08:12:26;;;;;;;8.10;5.37;;;;;;;12.12;60.77;100689.66;4988465;28;21439;-64
2022/12/15 08:14:52;;;;;;;7.20;5.40;;;;;;;12.15;60.62;100689.19;4990089;28;20544;-64
2022/12/15 08:17:17;;;;;;;10.00;5.50;;;;;;;12.13;60.72;100683.16;4989052;28;20070;-64
2022/12/15 08:19:42;;;;;;;8.53;5.33;;;;;;;12.16;60.40;100687.31;4988009;28;20065;-64
2022/12/15 08:22:08;;;;;;;6.37;5.10;;;;;;;12.19;60.42;100692.28;4989837;28;20030;-64
2022/12/15 08:24:34;;;;;;;8.37;5.30;;;;;;;12.24;60.38;100699.75;4989328;28;20042;-64
2022/12/15 08:26:59;;;;;;;7.37;5.40;;;;;;;12.23;60.35;100707.06;4988037;28;20124;-64
2022/12/15 08:29:24;;;;;;;6.77;5.30;;;;;;;12.29;60.09;100706.19;4989096;28;20054;-64
2022/12/15 08:31:50;;;;;;;8.97;5.43;;;;;;;12.31;60.15;100698.63;4989568;28;20058;-64
2022/12/15 08:34:15;;;;;;;6.83;5.30;;;;;;;12.36;59.87;100695.22;4988595;28;20026;-64
2022/12/15 08:36:40;;;;;;;7.23;5.43;;;;;;;12.32;59.88;100702.16;4988815;28;20034;-64
2022/12/15 08:39:06;;;;;;;7.93;5.23;;;;;;;12.33;59.95;100706.53;4989231;28;20033;-64
2022/12/15 08:41:32;;;;;;;7.43;5.27;;;;;;;12.38;59.78;100709.41;4989186;28;20145;-64
2022/12/15 08:43:59;;;;;;;7.20;5.57;;;;;;;12.43;59.61;100712.28;4988751;28;20127;-64
2022/12/15 08:46:27;;;;;;;7.93;5.60;;;;;;;12.38;59.58;100709.41;4989284;28;20896;-64
2022/12/15 08:48:52;;;;;;;7.00;5.43;;;;;;;12.37;59.44;100710.47;4988320;28;20548;-64
2022/12/15 08:51:19;;;;;;;6.67;5.20;;;;;;;12.45;59.63;100714.78;4989091;28;20038;-64
2022/12/15 08:53:45;;;;;;;7.93;5.80;;;;;;;12.48;59.37;100709.72;4988745;28;20038;-64
2022/12/15 08:56:14;;;;;;;7.53;5.70;;;;;;;12.47;59.34;100715.34;4988313;28;20475;-64
2022/12/15 08:58:40;;;;;;;8.80;5.67;;;;;;;12.42;59.37;100704.38;4988367;28;20030;-64
2022/12/15 09:01:10;;;;;;;7.57;5.57;;;;;;;12.50;59.17;100717.63;4989024;28;20057;-64
2022/12/15 09:03:35;;;;;;;7.67;5.40;;;;;;;12.54;59.11;100723.44;4988029;28;20653;-64
2022/12/15 09:06:12;;;;;;;8.30;5.60;;;;;;;12.52;59.43;100718.22;4987667;28;20046;-64
2022/12/15 09:08:38;;;;;;;6.57;5.20;;;;;;;12.49;59.19;100727.66;4986486;28;20037;-64
2022/12/15 09:11:04;;;;;;;7.30;5.57;;;;;;;12.48;59.22;100726.03;4987763;28;20849;-64
2022/12/15 09:13:30;;;;;;;7.83;5.60;;;;;;;12.54;58.84;100729.72;4988235;28;20401;-64
2022/12/15 09:15:56;;;;;;;7.47;5.70;;;;;;;12.55;58.85;100739.53;4988644;28;20042;-64
2022/12/15 09:18:21;;;;;;;7.90;5.30;;;;;;;12.48;58.90;100736.91;4988046;28;20065;-64
2022/12/15 09:20:46;;;;;;;8.53;5.87;;;;;;;12.55;58.76;100747.69;4987789;28;20489;-64
2022/12/15 09:23:12;;;;;;;6.40;5.40;;;;;;;12.55;58.90;100739.53;4988288;28;20125;-64
2022/12/15 09:25:37;;;;;;;7.20;5.53;;;;;;;12.57;58.64;100742.84;4970129;28;20038;-64
2022/12/15 09:28:02;;;;;;;7.57;5.47;;;;;;;12.49;59.07;100743.16;4988585;28;20495;-64
2022/12/15 09:30:28;;;;;;;6.73;5.27;;;;;;;12.49;58.92;100748.59;4987823;28;20058;-64
2022/12/15 09:32:53;;;;;;;6.50;5.27;;;;;;;12.54;58.92;100751.47;4988245;28;20034;-64
2022/12/15 09:35:19;;;;;;;7.00;5.57;;;;;;;12.56;58.79;100749.31;4987559;28;20061;-64
2022/12/15 09:37:44;;;;;;;7.30;5.30;;;;;;;12.52;58.92;100756.28;4988210;28;20037;-64
2022/12/15 09:40:12;;;;;;;6.97;5.30;;;;;;;12.48;58.79;100764.06;4988460;28;20034;-64
2022/12/15 09:42:38;;;;;;;7.87;5.50;;;;;;;12.53;58.72;100771.53;4989088;28;20087;-64
2022/12/15 09:45:18;;;;;;;7.53;5.77;;;;;;;12.50;58.97;100772.00;4988504;28;20057;-64
2022/12/15 09:47:55;;;;;;;7.67;5.50;;;;;;;12.45;58.90;100786.25;4988243;28;20080;-64
2022/12/15 09:50:26;;;;;;;7.50;5.53;;;;;;;12.43;59.06;100790.22;4986995;28;20120;-64
2022/12/15 09:52:55;;;;;;;6.57;5.37;;;;;;;12.42;58.99;100781.25;4987622;28;20029;-64
2022/12/15 09:55:27;;;;;;;8.40;5.60;;;;;;;12.41;59.04;100779.59;4987674;28;20383;-64
2022/12/15 09:57:55;;;;;;;6.50;5.53;;;;;;;12.38;58.96;100781.94;4987693;28;20041;-64
2022/12/15 10:00:21;;;;;;;7.00;5.50;;;;;;;12.36;59.08;100775.91;4986630;28;20127;-64
2022/12/15 10:03:14;;;;;;;7.53;5.60;;;;;;;12.37;59.11;100778.38;4987652;28;20156;-64
2022/12/15 10:06:04;;;;;;;8.33;5.70;;;;;;;12.39;59.43;100781.72;4987189;28;20025;-64
2022/12/15 10:08:33;;;;;;;7.53;5.50;;;;;;;12.31;59.11;100788.28;4986088;28;20025;-64
2022/12/15 10:11:16;;;;;;;6.50;5.53;;;;;;;12.30;59.20;100788.50;4987169;28;20529;-65
2022/12/15 10:13:57;;;;;;;8.20;5.63;;;;;;;12.31;59.49;100780.13;4987556;28;20030;-64
2022/12/15 10:16:44;;;;;;;6.97;5.87;;;;;;;12.32;59.63;100779.06;4986988;28;20044;-65
2022/12/15 10:19:17;;;;;;;7.87;5.67;;;;;;;12.28;59.16;100780.59;4986684;28;20030;-64
2022/12/15 10:21:43;;;;;;;7.18;5.68;;;;;;;12.26;59.34;100768.28;4986839;28;20060;-64
2022/12/15 10:24:16;;;;;;;8.10;6.17;;;;;;;12.26;59.29;100771.81;4986641;28;20045;-64
2022/12/15 10:26:42;;;;;;;7.07;5.90;;;;;;;12.26;59.20;100776.44;4985858;28;20038;-64
2022/12/15 10:29:28;;;;;;;7.57;5.87;;;;;;;12.26;59.47;100768.28;4985780;28;21751;-64
2022/12/15 10:32:00;;;;;;;7.43;5.83;;;;;;;12.24;59.59;100771.22;4985927;28;20042;-64
2022/12/15 10:34:35;;;;;;;6.97;5.77;;;;;;;12.23;59.44;100774.16;4985956;28;20037;-64
2022/12/15 10:37:00;;;;;;;;;;;;;;;12.35;60.26;100768.78;4986514;28;20088;-64
2022/12/15 10:39:40;;;;;;;7.40;5.60;;;;;;;12.24;59.81;100773.94;4985118;28;19980;-64
2022/12/15 10:42:12;;;;;;;8.23;5.63;;;;;;;12.21;59.55;100774.41;4986022;28;20418;-64
2022/12/15 10:44:40;;;;;;;7.80;5.73;;;;;;;12.20;59.51;100778.16;4985501;28;20034;-64
2022/12/15 10:47:21;;;;;;;6.80;5.67;;;;;;;12.20;59.80;100778.16;4985373;28;20061;-64
2022/12/15 10:49:47;;;;;;;7.20;5.63;;;;;;;12.21;59.45;100779.81;4985466;28;20382;-64
2022/12/15 10:52:45;;;;;;;8.37;5.77;;;;;;;12.26;60.05;100777.25;4985568;28;20037;-64
2022/12/15 10:55:35;;;;;;;6.53;5.50;;;;;;;12.23;59.97;100780.41;4974087;28;20133;-64
2022/12/15 10:58:03;;;;;;;8.90;5.70;;;;;;;12.19;59.68;100783.81;4984440;28;20081;-64
2022/12/15 11:00:31;;;;;;;6.80;5.30;;;;;;;12.18;59.65;100785.69;4982720;28;20054;-64
2022/12/15 11:02:58;;;;;;;7.17;6.00;;;;;;;12.19;59.67;100781.91;4983595;28;20478;-64
2022/12/15 11:05:25;;;;;;;6.87;5.40;;;;;;;12.19;59.67;100781.91;4983397;28;20030;-64
2022/12/15 11:08:11;;;;;;;6.93;5.67;;;;;;;12.16;59.73;100771.50;4983222;28;20125;-64
2022/12/15 11:13:33;;;;;;;9.00;5.90;;;;;;;12.21;59.57;100773.53;4983673;28;20061;-64
2022/12/15 11:16:12;;;;;;;7.97;5.73;;;;;;;12.19;59.86;100773.78;4983482;28;20042;-64
2022/12/15 11:19:04;;;;;;;6.57;5.30;;;;;;;12.17;59.69;100773.16;4986014;28;20398;-64
2022/12/15 11:21:37;;;;;;;8.47;5.67;;;;;;;12.15;59.70;100767.94;4976955;28;20050;-64
2022/12/15 11:24:27;;;;;;;8.63;5.93;;;;;;;12.14;59.92;100762.75;4987598;28;20065;-64
2022/12/15 11:27:15;;;;;;;6.77;5.60;;;;;;;12.16;60.12;100768.78;4986869;28;20037;-64
2022/12/15 11:30:05;;;;;;;6.87;5.80;;;;;;;12.14;60.17;100773.59;4986405;28;20077;-65
2022/12/15 11:32:35;;;;;;;6.73;5.57;;;;;;;12.11;59.90;100768.63;4987081;28;20501;-64
2022/12/15 11:35:01;;;;;;;7.43;5.80;;;;;;;12.11;59.83;100771.34;4987150;28;20034;-64
2022/12/15 11:37:37;;;;;;;7.00;5.50;;;;;;;12.11;60.15;100763.19;4986429;28;20116;-64
2022/12/15 11:40:05;;;;;;;6.93;5.47;;;;;;;12.08;60.02;100763.66;4987286;28;20060;-65
2022/12/15 11:42:39;;;;;;;6.70;5.67;;;;;;;12.11;59.90;100768.63;4987928;28;20041;-64
2022/12/15 11:45:19;;;;;;;8.07;5.50;;;;;;;12.10;60.17;100766.97;4986685;28;20041;-64
2022/12/15 11:48:06;;;;;;;7.47;5.80;;;;;;;12.11;60.38;100777.59;4986338;28;20041;-64
2022/12/15 11:50:57;;;;;;;7.43;5.90;;;;;;;12.08;60.10;100771.81;4986832;28;20496;-64
2022/12/15 11:53:37;;;;;;;7.30;5.60;;;;;;;12.05;60.09;100775.78;4986929;28;20512;-64
2022/12/15 11:56:17;;;;;;;7.33;5.63;;;;;;;12.05;60.20;100766.78;4986813;28;20073;-64
2022/12/15 11:59:02;;;;;;;8.13;5.80;;;;;;;12.05;60.28;100766.78;4986758;28;21116;-64
2022/12/15 12:01:52;;;;;;;7.80;5.73;;;;;;;12.04;60.12;100762.44;4986915;28;20485;-64
2022/12/15 12:04:17;;;;;;;6.67;5.40;;;;;;;12.03;60.15;100760.78;4986513;28;20398;-64
2022/12/15 12:07:09;;;;;;;6.97;5.60;;;;;;;12.04;60.20;100757.00;4985381;28;20061;-64
2022/12/15 12:09:40;;;;;;;6.77;5.50;;;;;;;12.01;60.20;100749.28;4986580;28;20518;-64
2022/12/15 12:12:18;;;;;;;7.67;5.80;;;;;;;12.01;60.17;100752.00;4986385;28;20059;-64
2022/12/15 12:15:28;;;;;;;6.27;5.50;;;;;;;12.03;60.52;100749.91;4985668;28;20520;-64
2022/12/15 12:18:03;;;;;;;10.23;5.93;;;;;;;12.01;60.26;100758.28;4984903;28;20038;-64
2022/12/15 12:20:50;;;;;;;8.57;5.90;;;;;;;12.01;60.52;100752.00;4985751;28;20054;-64
2022/12/15 12:23:22;;;;;;;7.73;6.00;;;;;;;11.98;60.33;100754.13;4985513;28;20033;-64
2022/12/15 12:26:09;;;;;;;7.20;5.77;;;;;;;11.99;60.35;100744.94;4985673;28;20694;-64
2022/12/15 12:28:45;;;;;;;7.27;5.43;;;;;;;11.97;60.55;100744.31;4984399;28;20030;-64
2022/12/15 12:31:48;;;;;;;7.43;6.00;;;;;;;11.99;60.66;100742.22;4983659;28;20100;-64
2022/12/15 12:34:30;;;;;;;6.17;5.57;;;;;;;11.97;60.44;100733.47;4984791;28;20034;-64
2022/12/15 12:37:03;;;;;;;7.13;5.97;;;;;;;11.96;60.35;100731.78;4984185;28;20117;-64
2022/12/15 12:39:30;;;;;;;6.67;5.53;;;;;;;11.95;60.34;100727.44;4984629;28;21858;-64
2022/12/15 12:42:10;;;;;;;8.17;6.00;;;;;;;11.94;60.38;100739.34;4985520;28;20049;-64
2022/12/15 12:44:37;;;;;;;7.47;5.93;;;;;;;11.94;60.47;100742.06;4988033;28;20474;-64
2022/12/15 12:47:22;;;;;;;7.20;5.70;;;;;;;11.95;60.61;100740.16;4988834;28;20325;-64
2022/12/15 12:49:53;;;;;;;7.33;5.77;;;;;;;11.96;60.48;100744.53;4988796;28;20026;-64
2022/12/15 12:52:36;;;;;;;6.90;5.53;;;;;;;11.95;60.58;100738.28;4989305;28;20742;-64
2022/12/15 12:55:22;;;;;;;8.13;6.33;;;;;;;11.93;60.55;100728.69;4989344;28;20049;-64
2022/12/15 12:57:48;;;;;;;8.97;6.20;;;;;;;11.92;60.37;100727.81;4988459;28;20022;-64
2022/12/15 13:00:17;;;;;;;7.10;5.83;;;;;;;11.92;60.33;100733.25;4988115;28;20029;-64
2022/12/15 13:02:47;;;;;;;7.60;5.63;;;;;;;11.92;60.52;100714.25;4988209;28;20050;-64
2022/12/15 13:05:30;;;;;;;8.00;5.90;;;;;;;11.92;60.71;100716.97;4987948;28;20035;-64
2022/12/15 13:08:04;;;;;;;6.97;5.50;;;;;;;11.92;60.69;100716.97;4988223;28;20117;-64
2022/12/15 13:10:30;;;;;;;;;;;;;;;12.02;61.16;100710.22;4988632;28;20035;-64
2022/12/15 13:12:58;;;;;;;7.27;5.63;;;;;;;11.93;60.59;100709.66;4988493;28;19971;-65
2022/12/15 13:15:26;;;;;;;8.20;6.13;;;;;;;11.92;60.62;100702.56;4988274;28;20452;-64
2022/12/15 13:17:55;;;;;;;9.37;5.97;;;;;;;11.92;60.65;100692.53;4988224;28;20188;-64
2022/12/15 13:20:22;;;;;;;7.97;5.60;;;;;;;11.92;60.68;100691.72;4987900;28;20373;-64
2022/12/15 13:22:48;;;;;;;7.23;5.83;;;;;;;11.90;60.71;100691.94;4987908;28;20030;-64
2022/12/15 13:25:34;;;;;;;7.80;5.50;;;;;;;11.92;60.92;100687.09;4988302;28;20045;-64
2022/12/15 13:28:15;;;;;;;7.83;5.73;;;;;;;11.90;60.62;100691.94;4988165;28;20503;-64
2022/12/15 13:31:11;;;;;;;7.07;6.03;;;;;;;11.92;60.91;100692.53;4987861;28;20041;-64
2022/12/15 13:33:52;;;;;;;7.33;5.80;;;;;;;11.92;60.92;100686.28;4987586;28;20458;-64
2022/12/15 13:36:36;;;;;;;8.47;6.40;;;;;;;11.91;61.06;100676.47;4987693;28;20033;-64
2022/12/15 13:39:21;;;;;;;7.10;5.70;;;;;;;11.92;61.10;100684.38;4969903;28;20405;-64
2022/12/15 13:41:53;;;;;;;7.40;6.00;;;;;;;11.90;60.73;100682.94;4987577;28;20038;-64
2022/12/15 13:44:29;;;;;;;7.83;6.40;;;;;;;11.90;60.75;100675.66;4987691;28;20033;-64
2022/12/15 13:47:03;;;;;;;7.63;5.90;;;;;;;11.90;60.70;100674.81;4987243;28;20103;-64
2022/12/15 13:49:36;;;;;;;7.38;6.15;;;;;;;11.91;60.67;100680.03;4988640;28;20034;-64
2022/12/15 13:52:16;;;;;;;6.67;5.63;;;;;;;11.89;61.11;100678.59;4987887;28;20025;-64
2022/12/15 13:54:51;;;;;;;8.40;5.77;;;;;;;11.88;60.88;100682.34;4987840;28;20034;-64
2022/12/15 13:57:18;;;;;;;7.20;5.77;;;;;;;11.89;60.83;100684.84;4986898;28;20116;-64
2022/12/15 13:59:50;;;;;;;8.07;6.13;;;;;;;11.88;60.87;100676.94;4987756;28;20030;-64
2022/12/15 14:02:28;;;;;;;6.67;5.60;;;;;;;11.88;61.01;100677.75;4987266;28;20438;-65
2022/12/15 14:05:13;;;;;;;7.30;5.80;;;;;;;11.90;61.20;100682.94;4987293;28;20038;-64
2022/12/15 14:07:43;;;;;;;7.53;6.03;;;;;;;11.86;60.73;100679.88;4982662;28;20049;-65